createdAt,value
2023-02-24T00:04:09.052Z,5.25
2023-02-24T00:09:10.368Z,5.22
2023-02-24T00:14:11.621Z,5.2
2023-02-24T00:19:13.103Z,5.07
2023-02-24T00:24:15.066Z,5
2023-02-24T00:29:17.068Z,4.96
2023-02-24T00:34:19.004Z,4.89
2023-02-24T00:39:20.699Z,4.88
2023-02-24T00:44:21.959Z,4.86
2023-02-24T00:49:23.827Z,4.85
2023-02-24T00:54:25.413Z,4.87
2023-02-24T00:59:27.181Z,4.91
2023-02-24T01:04:28.597Z,4.96
2023-02-24T01:09:30.404Z,5
2023-02-24T01:14:32.144Z,5.04
2023-02-24T01:19:33.425Z,5.09
2023-02-24T01:24:35.388Z,5.14
2023-02-24T01:29:36.936Z,5.18
2023-02-24T01:34:38.946Z,5.19
2023-02-24T01:39:41.120Z,5.2
2023-02-24T01:44:42.342Z,5.16
2023-02-24T01:49:43.611Z,5.14
2023-02-24T01:54:45.629Z,5.08
2023-02-24T01:59:55.327Z,5.03
2023-02-24T02:04:48.993Z,4.94
2023-02-24T02:24:54.951Z,4.38
2023-02-24T02:50:03.655Z,4.1
2023-02-24T02:55:05.386Z,4.08
2023-02-24T03:10:11.662Z,3.87
2023-02-24T03:15:12.893Z,3.83
2023-02-24T03:20:14.913Z,3.78
2023-02-24T03:25:17.008Z,3.79
2023-02-24T03:30:18.838Z,3.74
2023-02-24T03:35:20.527Z,3.69
2023-02-24T03:40:22.606Z,3.65
2023-02-24T03:45:24.624Z,3.53
2023-02-24T03:50:26.412Z,3.47
2023-02-24T03:55:28.262Z,3.4
2023-02-24T04:00:29.523Z,3.37
2023-02-24T04:05:31.728Z,3.29
2023-02-24T04:10:33.836Z,3.22
2023-02-24T04:15:35.299Z,3.2
2023-02-24T04:20:37.132Z,3.13
2023-02-24T04:25:38.960Z,3.1
2023-02-24T04:30:40.613Z,3.05
2023-02-24T04:35:41.996Z,3.05
2023-02-24T04:40:51.552Z,3.07
2023-02-24T04:45:45.031Z,3.1
2023-02-24T04:50:46.754Z,3.08
2023-02-24T04:55:48.886Z,3.05
2023-02-24T05:00:50.192Z,3.04
2023-02-24T05:05:52.325Z,3.04
2023-02-24T05:10:54.236Z,2.99
2023-02-24T05:15:56.407Z,2.94
2023-02-24T05:20:59.176Z,2.95
2023-02-24T05:25:59.637Z,2.95
2023-02-24T05:31:01.670Z,2.97
2023-02-24T05:36:03.045Z,3.01
2023-02-24T05:41:05.052Z,3.01
2023-02-24T05:46:06.907Z,3.04
2023-02-24T05:51:09.034Z,3.03
2023-02-24T05:56:10.931Z,3
2023-02-24T06:01:12.375Z,3
2023-02-24T06:06:14.352Z,2.96
2023-02-24T06:11:15.732Z,2.9
2023-02-24T06:16:17.580Z,2.88
2023-02-24T06:21:19.147Z,2.96
2023-02-24T06:26:20.504Z,2.99
2023-02-24T06:31:22.354Z,3.08
2023-02-24T06:36:23.665Z,3.14
2023-02-24T06:41:25.243Z,3.2
2023-02-24T06:46:26.709Z,3.28
2023-02-24T06:51:28.220Z,3.36
2023-02-24T06:56:32.084Z,3.44
2023-02-24T07:01:31.542Z,3.51
2023-02-24T07:06:32.742Z,3.58
2023-02-24T07:06:39.054Z,3.59
2023-02-24T07:11:40.524Z,3.67
2023-02-24T07:16:42.541Z,3.81
2023-02-24T07:21:44.390Z,3.91
2023-02-24T07:26:46.265Z,4.02
2023-02-24T07:31:48.512Z,4.16
2023-02-24T07:36:49.984Z,4.31
2023-02-24T07:41:51.103Z,4.48
2023-02-24T07:46:52.750Z,4.66
2023-02-24T07:51:54.686Z,4.83
2023-02-24T07:56:57.005Z,5.03
2023-02-24T08:01:58.394Z,5.26
2023-02-24T08:06:59.610Z,5.47
2023-02-24T08:12:01.694Z,5.68
2023-02-24T08:17:03.521Z,5.91
2023-02-24T08:22:04.728Z,6.13
2023-02-24T08:27:06.196Z,6.34
2023-02-24T08:32:07.461Z,6.54
2023-02-24T08:37:08.837Z,6.72
2023-02-24T08:42:10.505Z,6.9
2023-02-24T08:47:12.187Z,7.07
2023-02-24T08:52:14.061Z,7.24
2023-02-24T08:57:16.052Z,7.42
2023-02-24T09:02:17.498Z,7.56
2023-02-24T09:07:19.013Z,7.75
2023-02-24T09:12:28.455Z,7.87
2023-02-24T09:17:21.756Z,7.95
2023-02-24T09:22:23.911Z,8.02
2023-02-24T09:27:25.705Z,8.14
2023-02-24T09:32:27.483Z,8.18
2023-02-24T09:37:29.311Z,8.16
2023-02-24T09:42:30.967Z,8.18
2023-02-24T09:47:32.573Z,8.22
2023-02-24T09:52:34.334Z,8.28
2023-02-24T09:57:45.526Z,8.43
2023-02-24T10:02:38.394Z,8.71
2023-02-24T10:07:40.119Z,8.99
2023-02-24T10:12:41.783Z,9.31
2023-02-24T10:17:43.033Z,9.92
2023-02-24T10:22:45.004Z,10.22
2023-02-24T10:27:46.744Z,10.7
2023-02-24T10:32:48.190Z,10.89
2023-02-24T10:37:49.419Z,11.21
2023-02-24T10:42:50.761Z,11.54
2023-02-24T10:47:52.411Z,11.82
2023-02-24T10:52:53.947Z,12.17
2023-02-24T10:57:59.107Z,12.34
2023-02-24T11:02:56.748Z,12.36
2023-02-24T11:07:58.926Z,12.38
2023-02-24T11:13:09.125Z,12.36
2023-02-24T11:18:02.939Z,12.18
2023-02-24T11:23:04.806Z,11.83
2023-02-24T11:28:06.645Z,11.72
2023-02-24T11:33:08.312Z,11.54
2023-02-24T11:38:09.675Z,11.27
2023-02-24T11:43:11.690Z,11.14
2023-02-24T11:48:13.339Z,11.12
2023-02-24T11:53:14.944Z,11.02
2023-02-24T11:58:16.451Z,11.05
2023-02-24T12:03:18.062Z,11.13
2023-02-24T12:08:19.862Z,11.1
2023-02-24T12:13:22.126Z,11.17
2023-02-24T12:18:23.328Z,11.29
2023-02-24T12:23:25.092Z,11.35
2023-02-24T12:28:26.338Z,11.38
2023-02-24T12:33:28.175Z,11.45
2023-02-24T12:38:29.940Z,11.47
2023-02-24T12:43:31.262Z,11.48
2023-02-24T12:48:33.371Z,11.44
2023-02-24T12:53:34.807Z,11.44
2023-02-24T12:58:36.961Z,11.45
2023-02-24T13:03:38.427Z,11.47
2023-02-24T13:08:40.280Z,11.44
2023-02-24T13:13:42.176Z,11.42
2023-02-24T13:18:43.619Z,11.31
2023-02-24T13:23:45.286Z,11.06
2023-02-24T13:28:46.918Z,10.96
2023-02-24T13:33:49.038Z,10.91
2023-02-24T13:38:50.379Z,10.96
2023-02-24T13:43:51.962Z,10.86
2023-02-24T13:48:54.191Z,10.84
2023-02-24T13:53:57.510Z,10.9
2023-02-24T13:58:56.912Z,10.93
2023-02-24T14:03:58.719Z,11
2023-02-24T14:09:00.785Z,11.08
2023-02-24T14:14:03.029Z,11.07
2023-02-24T14:19:04.372Z,11.16
2023-02-24T14:24:05.773Z,11.06
2023-02-24T14:29:07.627Z,11.01
2023-02-24T14:34:09.115Z,10.82
2023-02-24T14:39:11.234Z,10.59
2023-02-24T14:44:13.518Z,10.62
2023-02-24T14:49:15.131Z,10.59
2023-02-24T14:54:16.822Z,10.55
2023-02-24T14:59:18.150Z,10.6
2023-02-24T15:04:20.242Z,10.54
2023-02-24T15:09:21.833Z,10.51
2023-02-24T15:14:23.512Z,10.45
2023-02-24T15:19:25.340Z,10.13
2023-02-24T15:24:27.508Z,10.13
2023-02-24T15:29:29.223Z,10.12
2023-02-24T15:34:30.838Z,10.14
2023-02-24T15:39:32.309Z,9.99
2023-02-24T15:44:33.851Z,9.58
2023-02-24T15:49:35.671Z,9.28
2023-02-24T15:54:37.467Z,9.25
2023-02-24T15:59:39.089Z,9.12
2023-02-24T16:04:40.897Z,8.87
2023-02-24T16:09:42.197Z,8.83
2023-02-24T16:14:43.547Z,8.68
2023-02-24T16:19:44.825Z,8.64
2023-02-24T16:24:46.519Z,8.41
2023-02-24T16:29:47.768Z,8.43
2023-02-24T16:34:49.903Z,8.31
2023-02-24T16:54:56.754Z,7.91
2023-02-24T17:10:01.640Z,7.8
2023-02-24T17:15:03.738Z,7.76
2023-02-24T17:20:05.908Z,7.68
2023-02-24T17:45:13.826Z,7.3
2023-02-24T18:00:18.776Z,7.24
2023-02-24T18:05:20.107Z,7.19
2023-02-24T18:10:21.990Z,7.2
2023-02-24T18:15:23.836Z,7.15
2023-02-24T18:20:25.448Z,7.16
2023-02-24T18:25:27.432Z,7.17
2023-02-24T18:30:29.607Z,7.18
2023-02-24T18:35:31.478Z,7.17
2023-02-24T18:40:33.377Z,7.06
2023-02-24T18:45:35.488Z,7.02
2023-02-24T18:50:36.903Z,7.07
2023-02-24T19:15:45.991Z,7.14
2023-02-24T19:20:46.943Z,7.1
2023-02-24T19:25:49.110Z,7.12
2023-02-24T19:30:51.144Z,7.2
2023-02-24T19:35:53.342Z,7.31
2023-02-24T19:40:54.904Z,7.23
2023-02-24T19:45:56.850Z,7.24
2023-02-24T19:50:58.694Z,7.2
2023-02-24T19:56:00.227Z,7.25
2023-02-24T20:01:02.331Z,7.34
2023-02-24T20:06:04.003Z,7.36
2023-02-24T20:11:06.048Z,7.36
2023-02-24T20:16:08.390Z,7.35
2023-02-24T20:21:09.740Z,7.38
2023-02-24T20:26:11.106Z,7.43
2023-02-24T20:31:13.025Z,7.4
2023-02-24T20:36:14.381Z,7.45
2023-02-24T20:41:16.398Z,7.41
2023-02-24T20:46:18.341Z,7.43
2023-02-24T20:51:20.191Z,7.46
2023-02-24T20:56:21.827Z,7.25
2023-02-24T21:01:23.699Z,7.2
2023-02-24T21:06:25.265Z,7.17
2023-02-24T21:11:26.284Z,7.15
2023-02-24T21:16:28.358Z,7.12
2023-02-24T21:21:30.018Z,6.92
2023-02-24T21:26:31.698Z,6.73
2023-02-24T21:31:33.996Z,6.32
2023-02-24T21:36:35.411Z,6.18
2023-02-24T21:41:36.931Z,6.12
2023-02-24T21:46:38.919Z,5.97
2023-02-24T21:51:40.206Z,5.84
2023-02-24T21:56:42.332Z,5.67
2023-02-24T22:01:52.275Z,5.37
2023-02-24T22:06:46.224Z,5.05
2023-02-24T22:11:48.297Z,4.98
2023-02-24T22:16:50.426Z,4.84
2023-02-24T22:21:52.213Z,4.86
2023-02-24T22:26:53.891Z,4.94
2023-02-24T22:31:55.743Z,4.91
2023-02-24T22:36:57.405Z,4.94
2023-02-24T22:41:59.445Z,4.96
2023-02-24T22:47:01.169Z,5.05
2023-02-24T22:52:02.772Z,4.94
2023-02-24T22:57:04.624Z,4.82
2023-02-24T23:12:11.805Z,4.59
2023-02-24T23:17:12.121Z,4.48
2023-02-24T23:22:13.341Z,4.42
2023-02-24T23:27:14.940Z,4.26
2023-02-24T23:32:16.788Z,4.23
2023-02-24T23:37:18.171Z,4.11
2023-02-24T23:42:19.461Z,4
2023-02-24T23:47:20.795Z,3.91
2023-02-24T23:52:21.971Z,3.84
2023-02-24T23:57:30.341Z,3.66
